Terminal Aerodrome Forecast
Issued by NWS

Home | Current Version | Previous Version | Text Only | Print | Product List | Glossary On
Versions: 1 2 3 4 5 6 7 8 9 10 11 12 13 14 15 16 17 18 19
000
FTUS43 KOAX 260500
TAFBFF
TAF
KBFF 260520Z 2606/2706 13008KT P6SM BKN150
     FM260900 34008KT P6SM SCT150
     FM261800 02010G20KT P6SM SCT070=

USA.gov is the U.S. government's official web portal to all federal, state and local government web resources and services.